sensor_id;sensor_type;location;lat;lon;timestamp;P1;durP1;ratioP1;P2;durP2;ratioP2
35897;SDS011;21997;47.118;15.346;2022-07-29T00:00:34;6.23;;;5.73;;
35897;SDS011;21997;47.118;15.346;2022-07-29T00:03:00;9.50;;;6.03;;
35897;SDS011;21997;47.118;15.346;2022-07-29T00:05:25;6.87;;;5.87;;
35897;SDS011;21997;47.118;15.346;2022-07-29T00:07:50;7.20;;;5.73;;
35897;SDS011;21997;47.118;15.346;2022-07-29T00:10:16;6.10;;;5.50;;
35897;SDS011;21997;47.118;15.346;2022-07-29T00:12:41;6.30;;;5.30;;
35897;SDS011;21997;47.118;15.346;2022-07-29T00:15:07;7.00;;;6.30;;
35897;SDS011;21997;47.118;15.346;2022-07-29T00:17:32;6.60;;;6.10;;
35897;SDS011;21997;47.118;15.346;2022-07-29T00:19:59;6.67;;;5.97;;
35897;SDS011;21997;47.118;15.346;2022-07-29T00:22:24;9.67;;;6.47;;
35897;SDS011;21997;47.118;15.346;2022-07-29T00:24:50;6.60;;;6.00;;
35897;SDS011;21997;47.118;15.346;2022-07-29T00:27:15;8.77;;;6.53;;
35897;SDS011;21997;47.118;15.346;2022-07-29T00:29:41;7.17;;;6.57;;
35897;SDS011;21997;47.118;15.346;2022-07-29T00:32:06;6.80;;;6.27;;
35897;SDS011;21997;47.118;15.346;2022-07-29T00:34:31;7.47;;;6.77;;
35897;SDS011;21997;47.118;15.346;2022-07-29T00:37:16;10.00;;;6.70;;
35897;SDS011;21997;47.118;15.346;2022-07-29T00:39:41;8.50;;;7.03;;
35897;SDS011;21997;47.118;15.346;2022-07-29T00:42:07;6.90;;;6.30;;
35897;SDS011;21997;47.118;15.346;2022-07-29T00:44:36;7.77;;;6.97;;
35897;SDS011;21997;47.118;15.346;2022-07-29T00:47:02;6.77;;;6.17;;
35897;SDS011;21997;47.118;15.346;2022-07-29T00:49:28;7.50;;;6.70;;
35897;SDS011;21997;47.118;15.346;2022-07-29T00:51:53;6.70;;;6.10;;
35897;SDS011;21997;47.118;15.346;2022-07-29T00:54:19;8.60;;;5.80;;
35897;SDS011;21997;47.118;15.346;2022-07-29T00:56:44;6.70;;;6.10;;
35897;SDS011;21997;47.118;15.346;2022-07-29T00:59:10;7.67;;;6.90;;
35897;SDS011;21997;47.118;15.346;2022-07-29T01:01:35;7.50;;;6.13;;
35897;SDS011;21997;47.118;15.346;2022-07-29T01:04:00;6.97;;;6.37;;
35897;SDS011;21997;47.118;15.346;2022-07-29T01:06:26;7.47;;;6.63;;
35897;SDS011;21997;47.118;15.346;2022-07-29T01:08:52;6.83;;;6.20;;
35897;SDS011;21997;47.118;15.346;2022-07-29T01:11:17;7.13;;;6.10;;
35897;SDS011;21997;47.118;15.346;2022-07-29T01:13:43;6.63;;;5.93;;
35897;SDS011;21997;47.118;15.346;2022-07-29T01:16:45;7.37;;;6.47;;
35897;SDS011;21997;47.118;15.346;2022-07-29T01:19:45;7.00;;;6.30;;
35897;SDS011;21997;47.118;15.346;2022-07-29T01:22:14;6.90;;;6.30;;
35897;SDS011;21997;47.118;15.346;2022-07-29T01:27:38;9.37;;;6.33;;
35897;SDS011;21997;47.118;15.346;2022-07-29T01:30:10;7.90;;;6.43;;
35897;SDS011;21997;47.118;15.346;2022-07-29T01:32:36;11.03;;;6.83;;
35897;SDS011;21997;47.118;15.346;2022-07-29T01:35:21;6.53;;;5.93;;
35897;SDS011;21997;47.118;15.346;2022-07-29T01:37:55;7.73;;;7.07;;
35897;SDS011;21997;47.118;15.346;2022-07-29T01:42:54;7.20;;;6.37;;
35897;SDS011;21997;47.118;15.346;2022-07-29T01:45:22;6.90;;;6.00;;
35897;SDS011;21997;47.118;15.346;2022-07-29T01:47:54;6.77;;;6.17;;
35897;SDS011;21997;47.118;15.346;2022-07-29T01:50:26;7.17;;;6.57;;
35897;SDS011;21997;47.118;15.346;2022-07-29T01:53:15;8.57;;;6.47;;
35897;SDS011;21997;47.118;15.346;2022-07-29T01:56:01;7.57;;;6.93;;
35897;SDS011;21997;47.118;15.346;2022-07-29T01:58:28;6.77;;;6.17;;
35897;SDS011;21997;47.118;15.346;2022-07-29T02:00:53;6.10;;;5.60;;
35897;SDS011;21997;47.118;15.346;2022-07-29T02:03:21;9.77;;;6.33;;
35897;SDS011;21997;47.118;15.346;2022-07-29T02:05:47;7.07;;;6.37;;
35897;SDS011;21997;47.118;15.346;2022-07-29T02:08:13;6.63;;;5.63;;
35897;SDS011;21997;47.118;15.346;2022-07-29T02:10:39;7.10;;;5.70;;
35897;SDS011;21997;47.118;15.346;2022-07-29T02:13:06;6.87;;;6.20;;
35897;SDS011;21997;47.118;15.346;2022-07-29T02:15:32;7.67;;;6.93;;
35897;SDS011;21997;47.118;15.346;2022-07-29T02:18:00;7.80;;;6.50;;
35897;SDS011;21997;47.118;15.346;2022-07-29T02:20:28;9.23;;;6.73;;
35897;SDS011;21997;47.118;15.346;2022-07-29T02:22:54;8.23;;;6.90;;
35897;SDS011;21997;47.118;15.346;2022-07-29T02:25:20;9.97;;;6.87;;
35897;SDS011;21997;47.118;15.346;2022-07-29T02:27:47;7.30;;;6.30;;
35897;SDS011;21997;47.118;15.346;2022-07-29T02:30:14;7.00;;;6.40;;
35897;SDS011;21997;47.118;15.346;2022-07-29T02:32:39;7.60;;;6.33;;
35897;SDS011;21997;47.118;15.346;2022-07-29T02:35:05;7.90;;;7.17;;
35897;SDS011;21997;47.118;15.346;2022-07-29T02:37:33;6.53;;;5.97;;
35897;SDS011;21997;47.118;15.346;2022-07-29T02:39:59;6.83;;;6.17;;
35897;SDS011;21997;47.118;15.346;2022-07-29T02:42:24;10.10;;;6.23;;
35897;SDS011;21997;47.118;15.346;2022-07-29T02:44:52;7.23;;;6.40;;
35897;SDS011;21997;47.118;15.346;2022-07-29T02:47:21;8.20;;;7.13;;
35897;SDS011;21997;47.118;15.346;2022-07-29T03:00:31;7.10;;;6.47;;
35897;SDS011;21997;47.118;15.346;2022-07-29T03:02:58;9.43;;;6.33;;
35897;SDS011;21997;47.118;15.346;2022-07-29T03:05:24;6.60;;;5.83;;
35897;SDS011;21997;47.118;15.346;2022-07-29T03:07:51;6.33;;;5.73;;
35897;SDS011;21997;47.118;15.346;2022-07-29T03:10:20;6.67;;;6.10;;
35897;SDS011;21997;47.118;15.346;2022-07-29T03:12:46;7.33;;;6.63;;
35897;SDS011;21997;47.118;15.346;2022-07-29T03:15:12;7.20;;;5.90;;
35897;SDS011;21997;47.118;15.346;2022-07-29T03:17:38;6.37;;;5.77;;
35897;SDS011;21997;47.118;15.346;2022-07-29T03:20:04;7.03;;;5.70;;
35897;SDS011;21997;47.118;15.346;2022-07-29T03:22:31;8.67;;;6.40;;
35897;SDS011;21997;47.118;15.346;2022-07-29T03:24:57;7.73;;;5.50;;
35897;SDS011;21997;47.118;15.346;2022-07-29T03:27:22;8.33;;;5.90;;
35897;SDS011;21997;47.118;15.346;2022-07-29T03:29:48;7.87;;;6.00;;
35897;SDS011;21997;47.118;15.346;2022-07-29T03:32:13;7.97;;;6.27;;
35897;SDS011;21997;47.118;15.346;2022-07-29T03:34:38;6.33;;;5.83;;
35897;SDS011;21997;47.118;15.346;2022-07-29T03:37:04;6.27;;;5.77;;
35897;SDS011;21997;47.118;15.346;2022-07-29T03:39:31;7.00;;;6.37;;
35897;SDS011;21997;47.118;15.346;2022-07-29T03:42:00;6.73;;;6.07;;
35897;SDS011;21997;47.118;15.346;2022-07-29T03:44:26;6.83;;;6.13;;
35897;SDS011;21997;47.118;15.346;2022-07-29T03:46:53;6.60;;;6.00;;
35897;SDS011;21997;47.118;15.346;2022-07-29T03:49:19;9.10;;;6.17;;
35897;SDS011;21997;47.118;15.346;2022-07-29T03:51:45;6.87;;;5.80;;
35897;SDS011;21997;47.118;15.346;2022-07-29T03:54:11;6.10;;;5.50;;
35897;SDS011;21997;47.118;15.346;2022-07-29T03:56:40;7.37;;;5.90;;
35897;SDS011;21997;47.118;15.346;2022-07-29T03:59:09;6.70;;;5.73;;
35897;SDS011;21997;47.118;15.346;2022-07-29T04:01:35;8.10;;;6.00;;
35897;SDS011;21997;47.118;15.346;2022-07-29T04:04:01;7.77;;;6.97;;
35897;SDS011;21997;47.118;15.346;2022-07-29T04:06:27;7.17;;;6.37;;
35897;SDS011;21997;47.118;15.346;2022-07-29T04:08:52;6.53;;;5.43;;
35897;SDS011;21997;47.118;15.346;2022-07-29T04:11:18;6.87;;;5.47;;
35897;SDS011;21997;47.118;15.346;2022-07-29T04:13:43;6.27;;;5.70;;
35897;SDS011;21997;47.118;15.346;2022-07-29T04:16:09;7.03;;;5.83;;
35897;SDS011;21997;47.118;15.346;2022-07-29T04:18:34;7.73;;;5.43;;
35897;SDS011;21997;47.118;15.346;2022-07-29T04:20:59;7.30;;;6.00;;
35897;SDS011;21997;47.118;15.346;2022-07-29T04:23:29;6.40;;;5.53;;
35897;SDS011;21997;47.118;15.346;2022-07-29T04:25:57;7.20;;;5.43;;
35897;SDS011;21997;47.118;15.346;2022-07-29T04:28:22;8.83;;;6.70;;
35897;SDS011;21997;47.118;15.346;2022-07-29T04:30:48;8.73;;;6.67;;
35897;SDS011;21997;47.118;15.346;2022-07-29T04:33:13;6.93;;;6.33;;
35897;SDS011;21997;47.118;15.346;2022-07-29T04:35:38;9.67;;;6.67;;
35897;SDS011;21997;47.118;15.346;2022-07-29T04:38:04;7.07;;;6.40;;
35897;SDS011;21997;47.118;15.346;2022-07-29T04:40:30;7.13;;;6.43;;
35897;SDS011;21997;47.118;15.346;2022-07-29T04:42:57;7.77;;;6.97;;
35897;SDS011;21997;47.118;15.346;2022-07-29T04:45:23;9.00;;;6.50;;
35897;SDS011;21997;47.118;15.346;2022-07-29T04:47:49;6.93;;;6.33;;
35897;SDS011;21997;47.118;15.346;2022-07-29T04:50:14;6.70;;;5.90;;
35897;SDS011;21997;47.118;15.346;2022-07-29T04:52:40;6.90;;;6.17;;
35897;SDS011;21997;47.118;15.346;2022-07-29T04:55:05;7.67;;;6.67;;
35897;SDS011;21997;47.118;15.346;2022-07-29T04:57:31;9.47;;;7.20;;
35897;SDS011;21997;47.118;15.346;2022-07-29T04:59:56;10.90;;;6.63;;
35897;SDS011;21997;47.118;15.346;2022-07-29T05:02:22;9.37;;;7.10;;
35897;SDS011;21997;47.118;15.346;2022-07-29T05:04:47;9.20;;;7.50;;
35897;SDS011;21997;47.118;15.346;2022-07-29T05:07:13;12.07;;;7.17;;
35897;SDS011;21997;47.118;15.346;2022-07-29T05:09:39;7.60;;;6.73;;
35897;SDS011;21997;47.118;15.346;2022-07-29T05:12:04;6.87;;;6.27;;
35897;SDS011;21997;47.118;15.346;2022-07-29T05:14:30;8.93;;;6.70;;
35897;SDS011;21997;47.118;15.346;2022-07-29T05:16:55;7.00;;;5.83;;
35897;SDS011;21997;47.118;15.346;2022-07-29T05:19:22;7.13;;;6.43;;
35897;SDS011;21997;47.118;15.346;2022-07-29T05:21:48;9.10;;;7.23;;
35897;SDS011;21997;47.118;15.346;2022-07-29T05:24:13;6.97;;;6.40;;
35897;SDS011;21997;47.118;15.346;2022-07-29T05:26:39;8.03;;;7.20;;
35897;SDS011;21997;47.118;15.346;2022-07-29T05:29:04;11.47;;;6.80;;
35897;SDS011;21997;47.118;15.346;2022-07-29T05:31:30;8.57;;;6.47;;
35897;SDS011;21997;47.118;15.346;2022-07-29T05:33:55;7.50;;;6.80;;
35897;SDS011;21997;47.118;15.346;2022-07-29T05:36:20;9.23;;;6.40;;
35897;SDS011;21997;47.118;15.346;2022-07-29T05:38:46;9.23;;;6.30;;
35897;SDS011;21997;47.118;15.346;2022-07-29T05:41:11;7.50;;;6.80;;
35897;SDS011;21997;47.118;15.346;2022-07-29T05:43:37;6.87;;;6.13;;
35897;SDS011;21997;47.118;15.346;2022-07-29T05:46:02;8.10;;;5.97;;
35897;SDS011;21997;47.118;15.346;2022-07-29T05:48:27;9.23;;;6.50;;
35897;SDS011;21997;47.118;15.346;2022-07-29T05:50:53;7.47;;;6.70;;
35897;SDS011;21997;47.118;15.346;2022-07-29T05:53:19;12.03;;;6.63;;
35897;SDS011;21997;47.118;15.346;2022-07-29T05:55:44;7.10;;;6.40;;
35897;SDS011;21997;47.118;15.346;2022-07-29T05:58:10;7.23;;;6.53;;
35897;SDS011;21997;47.118;15.346;2022-07-29T06:00:35;6.37;;;5.87;;
35897;SDS011;21997;47.118;15.346;2022-07-29T06:03:00;7.10;;;6.40;;
35897;SDS011;21997;47.118;15.346;2022-07-29T06:05:26;9.77;;;6.40;;
35897;SDS011;21997;47.118;15.346;2022-07-29T06:07:51;10.33;;;6.20;;
35897;SDS011;21997;47.118;15.346;2022-07-29T06:10:17;8.27;;;5.50;;
35897;SDS011;21997;47.118;15.346;2022-07-29T06:12:42;6.87;;;5.80;;
35897;SDS011;21997;47.118;15.346;2022-07-29T06:15:08;6.67;;;6.03;;
35897;SDS011;21997;47.118;15.346;2022-07-29T06:17:34;8.60;;;5.87;;
35897;SDS011;21997;47.118;15.346;2022-07-29T06:19:59;5.93;;;5.43;;
35897;SDS011;21997;47.118;15.346;2022-07-29T06:22:25;6.30;;;5.33;;
35897;SDS011;21997;47.118;15.346;2022-07-29T06:24:51;6.43;;;5.43;;
35897;SDS011;21997;47.118;15.346;2022-07-29T06:27:16;7.47;;;5.67;;
35897;SDS011;21997;47.118;15.346;2022-07-29T06:29:42;9.67;;;5.63;;
35897;SDS011;21997;47.118;15.346;2022-07-29T06:32:07;5.93;;;5.43;;
35897;SDS011;21997;47.118;15.346;2022-07-29T06:34:34;7.37;;;5.50;;
35897;SDS011;21997;47.118;15.346;2022-07-29T06:37:00;6.10;;;5.50;;
35897;SDS011;21997;47.118;15.346;2022-07-29T06:39:26;5.97;;;5.47;;
35897;SDS011;21997;47.118;15.346;2022-07-29T06:41:52;5.67;;;5.10;;
35897;SDS011;21997;47.118;15.346;2022-07-29T06:44:18;5.93;;;4.50;;
35897;SDS011;21997;47.118;15.346;2022-07-29T06:46:44;6.23;;;4.43;;
35897;SDS011;21997;47.118;15.346;2022-07-29T06:49:09;4.87;;;4.37;;
35897;SDS011;21997;47.118;15.346;2022-07-29T06:51:35;5.40;;;4.30;;
35897;SDS011;21997;47.118;15.346;2022-07-29T06:54:01;4.90;;;4.50;;
35897;SDS011;21997;47.118;15.346;2022-07-29T06:56:26;5.73;;;4.73;;
35897;SDS011;21997;47.118;15.346;2022-07-29T06:58:52;6.50;;;4.93;;
35897;SDS011;21997;47.118;15.346;2022-07-29T07:01:17;8.37;;;4.67;;
35897;SDS011;21997;47.118;15.346;2022-07-29T07:03:42;5.90;;;4.90;;
35897;SDS011;21997;47.118;15.346;2022-07-29T07:06:08;5.50;;;5.03;;
35897;SDS011;21997;47.118;15.346;2022-07-29T07:08:33;5.10;;;4.60;;
35897;SDS011;21997;47.118;15.346;2022-07-29T07:10:59;7.57;;;4.50;;
35897;SDS011;21997;47.118;15.346;2022-07-29T07:13:24;4.70;;;4.30;;
35897;SDS011;21997;47.118;15.346;2022-07-29T07:15:49;7.23;;;4.47;;
35897;SDS011;21997;47.118;15.346;2022-07-29T07:18:16;8.40;;;5.10;;
35897;SDS011;21997;47.118;15.346;2022-07-29T07:20:42;8.20;;;4.50;;
35897;SDS011;21997;47.118;15.346;2022-07-29T07:23:08;4.87;;;4.33;;
35897;SDS011;21997;47.118;15.346;2022-07-29T07:25:34;13.07;;;4.70;;
35897;SDS011;21997;47.118;15.346;2022-07-29T07:27:59;5.30;;;4.50;;
35897;SDS011;21997;47.118;15.346;2022-07-29T07:30:25;14.13;;;6.00;;
35897;SDS011;21997;47.118;15.346;2022-07-29T07:32:50;6.50;;;4.93;;
35897;SDS011;21997;47.118;15.346;2022-07-29T07:35:16;5.37;;;4.70;;
35897;SDS011;21997;47.118;15.346;2022-07-29T07:37:41;6.90;;;5.17;;
35897;SDS011;21997;47.118;15.346;2022-07-29T07:40:08;5.13;;;4.20;;
35897;SDS011;21997;47.118;15.346;2022-07-29T07:42:34;5.13;;;4.63;;
35897;SDS011;21997;47.118;15.346;2022-07-29T07:44:59;4.82;;;3.95;;
35897;SDS011;21997;47.118;15.346;2022-07-29T07:47:25;6.15;;;4.28;;
35897;SDS011;21997;47.118;15.346;2022-07-29T07:49:51;6.20;;;5.05;;
35897;SDS011;21997;47.118;15.346;2022-07-29T07:52:17;6.55;;;4.40;;
35897;SDS011;21997;47.118;15.346;2022-07-29T07:54:43;4.72;;;4.32;;
35897;SDS011;21997;47.118;15.346;2022-07-29T07:57:09;5.10;;;4.50;;
35897;SDS011;21997;47.118;15.346;2022-07-29T07:59:36;4.97;;;4.38;;
35897;SDS011;21997;47.118;15.346;2022-07-29T08:02:01;5.03;;;4.55;;
35897;SDS011;21997;47.118;15.346;2022-07-29T08:04:27;5.05;;;4.50;;
35897;SDS011;21997;47.118;15.346;2022-07-29T08:06:52;10.85;;;5.95;;
35897;SDS011;21997;47.118;15.346;2022-07-29T08:09:19;9.40;;;3.72;;
35897;SDS011;21997;47.118;15.346;2022-07-29T08:11:45;4.80;;;4.40;;
35897;SDS011;21997;47.118;15.346;2022-07-29T08:14:11;4.72;;;4.38;;
35897;SDS011;21997;47.118;15.346;2022-07-29T08:16:36;5.88;;;3.92;;
35897;SDS011;21997;47.118;15.346;2022-07-29T08:19:02;6.72;;;3.45;;
35897;SDS011;21997;47.118;15.346;2022-07-29T08:21:27;4.97;;;3.45;;
35897;SDS011;21997;47.118;15.346;2022-07-29T08:23:53;3.35;;;3.05;;
35897;SDS011;21997;47.118;15.346;2022-07-29T08:26:38;3.33;;;3.03;;
35897;SDS011;21997;47.118;15.346;2022-07-29T08:29:03;5.05;;;3.60;;
35897;SDS011;21997;47.118;15.346;2022-07-29T08:31:29;5.00;;;3.60;;
35897;SDS011;21997;47.118;15.346;2022-07-29T08:33:54;6.20;;;3.55;;
35897;SDS011;21997;47.118;15.346;2022-07-29T08:36:21;3.70;;;3.40;;
35897;SDS011;21997;47.118;15.346;2022-07-29T08:38:46;4.60;;;3.63;;
35897;SDS011;21997;47.118;15.346;2022-07-29T08:41:11;4.30;;;3.15;;
35897;SDS011;21997;47.118;15.346;2022-07-29T08:43:37;3.25;;;2.97;;
35897;SDS011;21997;47.118;15.346;2022-07-29T08:46:03;4.80;;;3.70;;
35897;SDS011;21997;47.118;15.346;2022-07-29T08:48:28;3.72;;;2.78;;
35897;SDS011;21997;47.118;15.346;2022-07-29T08:50:54;2.92;;;2.72;;
35897;SDS011;21997;47.118;15.346;2022-07-29T08:53:20;4.53;;;3.03;;
35897;SDS011;21997;47.118;15.346;2022-07-29T08:55:48;3.85;;;2.92;;
35897;SDS011;21997;47.118;15.346;2022-07-29T08:58:14;2.78;;;2.58;;
35897;SDS011;21997;47.118;15.346;2022-07-29T09:00:41;3.95;;;3.38;;
35897;SDS011;21997;47.118;15.346;2022-07-29T09:03:12;4.55;;;2.97;;
35897;SDS011;21997;47.118;15.346;2022-07-29T09:05:44;4.30;;;3.42;;
35897;SDS011;21997;47.118;15.346;2022-07-29T09:08:10;4.70;;;3.42;;
35897;SDS011;21997;47.118;15.346;2022-07-29T09:10:37;3.85;;;3.45;;
35897;SDS011;21997;47.118;15.346;2022-07-29T09:13:02;4.07;;;3.38;;
35897;SDS011;21997;47.118;15.346;2022-07-29T09:15:28;3.33;;;3.03;;
35897;SDS011;21997;47.118;15.346;2022-07-29T09:17:53;4.75;;;3.38;;
35897;SDS011;21997;47.118;15.346;2022-07-29T09:20:20;4.28;;;3.20;;
35897;SDS011;21997;47.118;15.346;2022-07-29T09:22:47;5.80;;;3.45;;
35897;SDS011;21997;47.118;15.346;2022-07-29T09:25:14;5.60;;;3.20;;
35897;SDS011;21997;47.118;15.346;2022-07-29T09:27:40;4.30;;;3.60;;
35897;SDS011;21997;47.118;15.346;2022-07-29T09:30:07;4.53;;;3.55;;
35897;SDS011;21997;47.118;15.346;2022-07-29T09:35:26;3.83;;;3.42;;
35897;SDS011;21997;47.118;15.346;2022-07-29T09:37:52;5.30;;;3.38;;
35897;SDS011;21997;47.118;15.346;2022-07-29T09:40:19;3.42;;;3.10;;
35897;SDS011;21997;47.118;15.346;2022-07-29T09:42:44;3.45;;;3.10;;
35897;SDS011;21997;47.118;15.346;2022-07-29T09:45:11;7.82;;;3.00;;
35897;SDS011;21997;47.118;15.346;2022-07-29T09:47:44;5.93;;;3.22;;
35897;SDS011;21997;47.118;15.346;2022-07-29T09:50:11;4.65;;;3.50;;
35897;SDS011;21997;47.118;15.346;2022-07-29T09:52:47;4.63;;;3.33;;
35897;SDS011;21997;47.118;15.346;2022-07-29T09:55:14;4.63;;;3.38;;
35897;SDS011;21997;47.118;15.346;2022-07-29T09:57:39;4.90;;;3.42;;
35897;SDS011;21997;47.118;15.346;2022-07-29T10:00:09;3.83;;;2.92;;
35897;SDS011;21997;47.118;15.346;2022-07-29T10:02:38;5.00;;;3.83;;
35897;SDS011;21997;47.118;15.346;2022-07-29T10:05:06;5.60;;;3.70;;
35897;SDS011;21997;47.118;15.346;2022-07-29T10:10:10;3.72;;;3.42;;
35897;SDS011;21997;47.118;15.346;2022-07-29T10:12:48;7.07;;;3.38;;
35897;SDS011;21997;47.118;15.346;2022-07-29T10:15:15;5.07;;;3.90;;
35897;SDS011;21997;47.118;15.346;2022-07-29T10:17:40;4.10;;;3.65;;
35897;SDS011;21997;47.118;15.346;2022-07-29T10:20:06;4.50;;;3.50;;
35897;SDS011;21997;47.118;15.346;2022-07-29T10:22:32;4.28;;;3.17;;
35897;SDS011;21997;47.118;15.346;2022-07-29T10:24:58;4.57;;;3.67;;
35897;SDS011;21997;47.118;15.346;2022-07-29T10:27:24;3.72;;;3.40;;
35897;SDS011;21997;47.118;15.346;2022-07-29T10:29:49;5.43;;;3.50;;
35897;SDS011;21997;47.118;15.346;2022-07-29T10:32:16;3.50;;;3.20;;
35897;SDS011;21997;47.118;15.346;2022-07-29T10:40:26;4.30;;;3.70;;
35897;SDS011;21997;47.118;15.346;2022-07-29T10:43:17;4.80;;;3.13;;
35897;SDS011;21997;47.118;15.346;2022-07-29T10:45:48;3.97;;;3.57;;
35897;SDS011;21997;47.118;15.346;2022-07-29T10:48:14;4.03;;;3.55;;
35897;SDS011;21997;47.118;15.346;2022-07-29T10:50:53;4.33;;;3.83;;
35897;SDS011;21997;47.118;15.346;2022-07-29T10:53:20;3.90;;;3.60;;
35897;SDS011;21997;47.118;15.346;2022-07-29T10:55:46;3.72;;;3.42;;
35897;SDS011;21997;47.118;15.346;2022-07-29T10:58:18;4.80;;;3.08;;
35897;SDS011;21997;47.118;15.346;2022-07-29T11:00:48;3.67;;;3.38;;
35897;SDS011;21997;47.118;15.346;2022-07-29T11:06:05;5.30;;;3.47;;
35897;SDS011;21997;47.118;15.346;2022-07-29T11:08:30;6.03;;;3.47;;
35897;SDS011;21997;47.118;15.346;2022-07-29T11:13:52;3.50;;;3.20;;
35897;SDS011;21997;47.118;15.346;2022-07-29T11:16:20;4.00;;;3.63;;
35897;SDS011;21997;47.118;15.346;2022-07-29T11:21:38;4.13;;;3.08;;
35897;SDS011;21997;47.118;15.346;2022-07-29T11:24:18;3.58;;;3.13;;
35897;SDS011;21997;47.118;15.346;2022-07-29T11:26:44;3.67;;;2.95;;
35897;SDS011;21997;47.118;15.346;2022-07-29T11:29:18;3.47;;;3.17;;
35897;SDS011;21997;47.118;15.346;2022-07-29T11:31:49;4.43;;;2.88;;
35897;SDS011;21997;47.118;15.346;2022-07-29T11:40:07;2.97;;;2.78;;
35897;SDS011;21997;47.118;15.346;2022-07-29T11:45:00;3.40;;;2.85;;
35897;SDS011;21997;47.118;15.346;2022-07-29T11:47:34;4.30;;;2.30;;
35897;SDS011;21997;47.118;15.346;2022-07-29T11:50:02;3.92;;;3.13;;
35897;SDS011;21997;47.118;15.346;2022-07-29T11:52:35;3.65;;;2.83;;
35897;SDS011;21997;47.118;15.346;2022-07-29T11:55:08;3.47;;;2.83;;
35897;SDS011;21997;47.118;15.346;2022-07-29T11:57:34;3.10;;;2.80;;
35897;SDS011;21997;47.118;15.346;2022-07-29T12:00:00;4.70;;;3.83;;
35897;SDS011;21997;47.118;15.346;2022-07-29T12:02:37;3.35;;;3.05;;
35897;SDS011;21997;47.118;15.346;2022-07-29T12:05:07;3.95;;;3.55;;
35897;SDS011;21997;47.118;15.346;2022-07-29T12:07:35;3.58;;;3.25;;
35897;SDS011;21997;47.118;15.346;2022-07-29T12:10:00;3.22;;;2.92;;
35897;SDS011;21997;47.118;15.346;2022-07-29T12:12:26;3.50;;;3.20;;
35897;SDS011;21997;47.118;15.346;2022-07-29T12:14:52;4.65;;;3.08;;
35897;SDS011;21997;47.118;15.346;2022-07-29T12:17:29;3.95;;;3.47;;
35897;SDS011;21997;47.118;15.346;2022-07-29T12:19:56;3.22;;;2.92;;
35897;SDS011;21997;47.118;15.346;2022-07-29T12:22:33;3.67;;;3.38;;
35897;SDS011;21997;47.118;15.346;2022-07-29T12:27:31;5.25;;;3.17;;
35897;SDS011;21997;47.118;15.346;2022-07-29T12:30:01;3.47;;;3.17;;
35897;SDS011;21997;47.118;15.346;2022-07-29T12:32:38;4.53;;;3.50;;
35897;SDS011;21997;47.118;15.346;2022-07-29T12:35:12;3.80;;;3.40;;
35897;SDS011;21997;47.118;15.346;2022-07-29T12:37:39;4.38;;;3.97;;
35897;SDS011;21997;47.118;15.346;2022-07-29T12:40:06;3.33;;;3.03;;
35897;SDS011;21997;47.118;15.346;2022-07-29T12:42:33;7.00;;;3.35;;
35897;SDS011;21997;47.118;15.346;2022-07-29T12:45:01;3.42;;;3.13;;
35897;SDS011;21997;47.118;15.346;2022-07-29T12:47:27;4.63;;;3.80;;
35897;SDS011;21997;47.118;15.346;2022-07-29T12:50:07;3.72;;;3.40;;
35897;SDS011;21997;47.118;15.346;2022-07-29T12:52:34;3.28;;;2.97;;
35897;SDS011;21997;47.118;15.346;2022-07-29T12:55:00;7.05;;;3.30;;
35897;SDS011;21997;47.118;15.346;2022-07-29T12:57:26;4.25;;;3.53;;
35897;SDS011;21997;47.118;15.346;2022-07-29T13:00:08;3.58;;;3.20;;
35897;SDS011;21997;47.118;15.346;2022-07-29T13:02:36;3.60;;;3.30;;
35897;SDS011;21997;47.118;15.346;2022-07-29T13:05:03;4.63;;;3.10;;
35897;SDS011;21997;47.118;15.346;2022-07-29T13:07:30;4.03;;;3.13;;
35897;SDS011;21997;47.118;15.346;2022-07-29T13:10:18;3.03;;;2.78;;
35897;SDS011;21997;47.118;15.346;2022-07-29T13:13:03;3.40;;;3.10;;
35897;SDS011;21997;47.118;15.346;2022-07-29T13:15:29;3.15;;;2.90;;
35897;SDS011;21997;47.118;15.346;2022-07-29T13:17:55;3.35;;;3.08;;
35897;SDS011;21997;47.118;15.346;2022-07-29T13:20:23;5.25;;;3.05;;
35897;SDS011;21997;47.118;15.346;2022-07-29T13:22:50;3.85;;;2.88;;
35897;SDS011;21997;47.118;15.346;2022-07-29T13:25:22;3.30;;;3.00;;
35897;SDS011;21997;47.118;15.346;2022-07-29T13:27:49;3.40;;;3.10;;
35897;SDS011;21997;47.118;15.346;2022-07-29T13:30:14;3.10;;;2.80;;
35897;SDS011;21997;47.118;15.346;2022-07-29T13:32:40;3.15;;;2.65;;
35897;SDS011;21997;47.118;15.346;2022-07-29T13:35:06;3.20;;;2.60;;
35897;SDS011;21997;47.118;15.346;2022-07-29T13:37:33;3.92;;;3.20;;
35897;SDS011;21997;47.118;15.346;2022-07-29T13:39:59;2.95;;;2.55;;
35897;SDS011;21997;47.118;15.346;2022-07-29T13:42:27;5.28;;;2.92;;
35897;SDS011;21997;47.118;15.346;2022-07-29T13:44:53;3.33;;;3.03;;
35897;SDS011;21997;47.118;15.346;2022-07-29T13:47:18;3.55;;;3.25;;
35897;SDS011;21997;47.118;15.346;2022-07-29T13:49:44;3.10;;;2.65;;
35897;SDS011;21997;47.118;15.346;2022-07-29T13:52:10;3.20;;;2.90;;
35897;SDS011;21997;47.118;15.346;2022-07-29T13:54:35;3.22;;;2.72;;
35897;SDS011;21997;47.118;15.346;2022-07-29T13:57:02;3.33;;;3.03;;
35897;SDS011;21997;47.118;15.346;2022-07-29T13:59:28;6.78;;;2.63;;
35897;SDS011;21997;47.118;15.346;2022-07-29T14:01:53;3.08;;;2.88;;
35897;SDS011;21997;47.118;15.346;2022-07-29T14:04:19;3.28;;;3.00;;
35897;SDS011;21997;47.118;15.346;2022-07-29T14:06:44;3.10;;;2.90;;
35897;SDS011;21997;47.118;15.346;2022-07-29T14:09:09;3.35;;;3.03;;
35897;SDS011;21997;47.118;15.346;2022-07-29T14:11:35;4.07;;;3.13;;
35897;SDS011;21997;47.118;15.346;2022-07-29T14:14:01;3.17;;;2.72;;
35897;SDS011;21997;47.118;15.346;2022-07-29T14:16:26;3.20;;;2.90;;
35897;SDS011;21997;47.118;15.346;2022-07-29T14:18:52;3.92;;;3.50;;
35897;SDS011;21997;47.118;15.346;2022-07-29T14:21:17;3.45;;;3.15;;
35897;SDS011;21997;47.118;15.346;2022-07-29T14:23:43;3.50;;;3.20;;
35897;SDS011;21997;47.118;15.346;2022-07-29T14:26:08;4.05;;;3.55;;
35897;SDS011;21997;47.118;15.346;2022-07-29T14:28:34;5.68;;;3.40;;
35897;SDS011;21997;47.118;15.346;2022-07-29T14:30:59;3.45;;;3.15;;
35897;SDS011;21997;47.118;15.346;2022-07-29T14:33:25;3.40;;;3.10;;
35897;SDS011;21997;47.118;15.346;2022-07-29T14:35:50;3.50;;;3.00;;
35897;SDS011;21997;47.118;15.346;2022-07-29T14:38:15;8.75;;;4.00;;
35897;SDS011;21997;47.118;15.346;2022-07-29T14:40:41;4.45;;;3.75;;
35897;SDS011;21997;47.118;15.346;2022-07-29T14:43:06;3.67;;;3.22;;
35897;SDS011;21997;47.118;15.346;2022-07-29T14:45:31;4.30;;;3.63;;
35897;SDS011;21997;47.118;15.346;2022-07-29T14:47:57;3.63;;;3.00;;
35897;SDS011;21997;47.118;15.346;2022-07-29T14:50:22;3.75;;;3.40;;
35897;SDS011;21997;47.118;15.346;2022-07-29T14:52:48;4.50;;;4.10;;
35897;SDS011;21997;47.118;15.346;2022-07-29T14:55:13;9.18;;;3.72;;
35897;SDS011;21997;47.118;15.346;2022-07-29T14:57:39;3.58;;;3.28;;
35897;SDS011;21997;47.118;15.346;2022-07-29T15:00:05;6.13;;;4.22;;
35897;SDS011;21997;47.118;15.346;2022-07-29T15:02:32;3.67;;;3.33;;
35897;SDS011;21997;47.118;15.346;2022-07-29T15:04:58;3.53;;;3.22;;
35897;SDS011;21997;47.118;15.346;2022-07-29T15:07:23;5.53;;;3.58;;
35897;SDS011;21997;47.118;15.346;2022-07-29T15:09:49;5.30;;;3.70;;
35897;SDS011;21997;47.118;15.346;2022-07-29T15:12:14;3.40;;;3.13;;
35897;SDS011;21997;47.118;15.346;2022-07-29T15:14:40;6.82;;;4.80;;
35897;SDS011;21997;47.118;15.346;2022-07-29T15:17:05;4.63;;;4.18;;
35897;SDS011;21997;47.118;15.346;2022-07-29T15:19:31;4.72;;;4.00;;